Time;durP1;ratioP1;P1;durP2;ratioP2;P2;SDS_P1;SDS_P2;PMS_P1;PMS_P2;Temp;Humidity;BMP_temperature;BMP_pressure;BME280_temperature;BME280_humidity;BME280_pressure;Samples;Min_cycle;Max_cycle;Signal;HPM_P1;HPM_P2
2023/07/01 00:02:09;;;;;;;0.00;0.00;;;;;;;26.46;38.29;100726.69;5039088;28;20037;-62
2023/07/01 00:04:35;;;;;;;0.00;0.00;;;;;;;25.67;39.71;100725.72;5042220;28;20045;-63
2023/07/01 00:07:00;;;;;;;0.00;0.00;;;;;;;25.41;40.66;100719.47;5040956;28;20048;-63
2023/07/01 00:09:26;;;;;;;0.00;0.00;;;;;;;26.30;38.33;100711.06;5039031;28;20312;-64
2023/07/01 00:11:51;;;;;;;0.00;0.00;;;;;;;25.94;38.73;100712.34;5042986;28;20049;-64
2023/07/01 00:14:17;;;;;;;0.00;0.00;;;;;;;25.26;40.80;100710.56;5047788;28;20061;-63
2023/07/01 00:16:42;;;;;;;0.00;0.00;;;;;;;25.07;40.87;100703.78;5048735;28;20029;-64
2023/07/01 00:19:08;;;;;;;0.00;0.00;;;;;;;25.29;40.61;100700.84;5050288;28;20090;-65
2023/07/01 00:21:33;;;;;;;0.00;0.00;;;;;;;25.01;40.95;100694.09;5047040;28;20532;-64
2023/07/01 00:23:59;;;;;;;0.00;0.00;;;;;;;25.71;39.60;100693.66;5057498;28;20044;-63
2023/07/01 00:26:25;;;;;;;0.00;0.00;;;;;;;25.63;39.50;100684.25;5067672;28;20037;-63
2023/07/01 00:28:52;;;;;;;0.00;0.00;;;;;;;24.76;41.49;100676.47;5064677;28;20036;-64
2023/07/01 00:31:18;;;;;;;0.00;0.00;;;;;;;25.09;41.38;100666.59;5068366;28;20047;-63
2023/07/01 00:33:43;;;;;;;0.00;0.00;;;;;;;24.55;42.44;100667.19;5078699;28;20041;-60
2023/07/01 00:36:09;;;;;;;0.00;0.00;;;;;;;24.93;41.52;100661.91;5052725;28;20055;-63
2023/07/01 00:38:34;;;;;;;0.00;0.00;;;;;;;25.58;39.98;100650.63;5073285;28;20364;-64
2023/07/01 00:40:59;;;;;;;0.00;0.00;;;;;;;25.15;40.90;100645.22;5047546;28;20370;-62
2023/07/01 00:43:25;;;;;;;0.00;0.00;;;;;;;25.80;39.45;100650.38;5069192;28;20381;-63
2023/07/01 00:45:50;;;;;;;0.00;0.00;;;;;;;24.36;42.52;100651.03;5078210;28;20032;-66
2023/07/01 00:48:24;;;;;;;0.00;0.00;;;;;;;25.65;39.66;100648.97;5072296;28;20024;-64
2023/07/01 00:50:50;;;;;;;0.00;0.00;;;;;;;25.03;40.66;100645.88;5067733;28;20037;-64
2023/07/01 00:53:16;;;;;;;0.00;0.00;;;;;;;25.62;39.75;100632.31;5069158;28;20036;-62
2023/07/01 00:55:41;;;;;;;0.00;0.00;;;;;;;25.10;40.60;100646.19;5069153;28;20048;-64
2023/07/01 00:58:06;;;;;;;0.03;0.03;;;;;;;25.02;40.84;100635.22;5069135;28;20086;-65
2023/07/01 01:00:32;;;;;;;0.00;0.00;;;;;;;25.42;39.57;100638.53;5069336;28;20028;-64
2023/07/01 01:03:08;;;;;;;0.00;0.00;;;;;;;25.92;38.92;100626.50;5069173;28;20032;-65
2023/07/01 01:05:45;;;;;;;0.00;0.00;;;;;;;25.72;39.32;100626.44;5054324;28;20079;-64
2023/07/01 01:08:20;;;;;;;0.00;0.00;;;;;;;26.10;38.27;100608.75;5068728;28;20040;-66
2023/07/01 01:10:49;;;;;;;0.00;0.00;;;;;;;24.57;41.74;100620.97;5069289;28;20520;-65
2023/07/01 01:13:16;;;;;;;0.00;0.00;;;;;;;24.83;41.48;100619.06;5069253;28;20033;-64
2023/07/01 01:15:42;;;;;;;0.00;0.00;;;;;;;24.92;41.10;100610.81;5076252;28;20056;-63
2023/07/01 01:18:11;;;;;;;0.00;0.00;;;;;;;25.10;41.25;100606.91;5069240;28;20043;-64
2023/07/01 01:20:40;;;;;;;0.00;0.00;;;;;;;24.52;41.78;100596.41;5069049;28;20035;-63
2023/07/01 01:23:23;;;;;;;0.00;0.00;;;;;;;24.85;41.49;100594.78;5068361;28;20106;-67
2023/07/01 01:26:09;;;;;;;0.00;0.00;;;;;;;25.65;39.44;100591.16;5068688;28;20147;-64
2023/07/01 01:28:35;;;;;;;0.00;0.00;;;;;;;24.80;41.13;100600.47;5069025;28;20029;-63
2023/07/01 01:31:01;;;;;;;0.00;0.00;;;;;;;25.31;39.46;100595.97;5050257;28;20477;-64
2023/07/01 01:33:27;;;;;;;0.00;0.00;;;;;;;25.82;38.49;100577.31;5067287;28;20021;-63
2023/07/01 01:35:59;;;;;;;0.00;0.00;;;;;;;25.01;40.36;100579.41;5067656;28;20504;-63
2023/07/01 01:38:30;;;;;;;0.00;0.00;;;;;;;25.35;39.23;100578.50;5048984;28;20051;-65
2023/07/01 01:41:07;;;;;;;0.00;0.00;;;;;;;24.79;40.80;100576.03;5070366;28;20033;-63
2023/07/01 01:43:44;;;;;;;0.00;0.00;;;;;;;25.73;38.94;100573.00;5057398;28;20028;-64
2023/07/01 01:46:10;;;;;;;0.00;0.00;;;;;;;25.25;39.53;100574.16;5073034;28;20044;-65
2023/07/01 01:48:38;;;;;;;0.00;0.00;;;;;;;25.69;39.23;100569.31;5073110;28;20029;-66
2023/07/01 01:51:04;;;;;;;0.08;0.08;;;;;;;24.85;41.85;100561.81;5072699;28;20055;-64
2023/07/01 01:53:31;;;;;;;0.00;0.00;;;;;;;24.01;43.90;100557.91;5072590;28;20503;-63
2023/07/01 01:55:58;;;;;;;0.03;0.03;;;;;;;24.98;41.47;100562.75;5054137;28;20029;-63
2023/07/01 01:58:24;;;;;;;0.00;0.00;;;;;;;25.44;41.03;100557.28;5054112;28;20041;-67
2023/07/01 02:00:49;;;;;;;0.00;0.00;;;;;;;24.91;41.77;100556.94;5072652;28;20265;-64
2023/07/01 02:03:15;;;;;;;0.05;0.05;;;;;;;25.39;40.54;100560.19;5072931;28;20487;-63
2023/07/01 02:05:40;;;;;;;0.00;0.00;;;;;;;24.72;42.33;100550.97;5072637;28;20138;-63
2023/07/01 02:08:06;;;;;;;0.00;0.00;;;;;;;25.79;39.97;100547.69;5072062;28;20044;-63
2023/07/01 02:10:32;;;;;;;0.00;0.00;;;;;;;24.45;42.58;100540.34;5073159;28;20040;-64
2023/07/01 02:12:58;;;;;;;0.00;0.00;;;;;;;24.61;42.12;100552.44;5075521;28;20040;-64
2023/07/01 02:15:23;;;;;;;0.00;0.00;;;;;;;24.57;42.60;100533.03;5072699;28;20376;-64
2023/07/01 02:17:49;;;;;;;0.00;0.00;;;;;;;25.26;40.88;100542.75;5072213;28;20559;-64
2023/07/01 02:20:14;;;;;;;0.00;0.00;;;;;;;24.18;43.05;100567.00;5071885;28;20464;-64
2023/07/01 02:22:44;;;;;;;0.10;0.10;;;;;;;24.46;43.52;100530.94;5071507;28;20048;-64
2023/07/01 02:25:10;;;;;;;;;;;;;;;24.82;42.59;100526.75;5070172;28;20048;-63
2023/07/01 02:27:35;;;;;;;0.00;0.00;;;;;;;24.91;42.30;100530.25;5072167;28;20007;-63
2023/07/01 02:30:02;;;;;;;0.00;0.00;;;;;;;24.24;43.46;100524.50;5053031;28;20041;-64
2023/07/01 02:32:28;;;;;;;0.00;0.00;;;;;;;24.24;43.87;100526.44;5053538;28;20071;-63
2023/07/01 02:34:53;;;;;;;0.00;0.00;;;;;;;24.76;43.55;100511.56;5071557;28;20451;-64
2023/07/01 02:37:19;;;;;;;0.10;0.10;;;;;;;25.01;42.43;100504.34;5071438;28;20040;-65
2023/07/01 02:39:46;;;;;;;0.00;0.00;;;;;;;23.90;45.60;100510.72;5053968;28;20032;-65
2023/07/01 02:42:12;;;;;;;0.00;0.00;;;;;;;24.77;43.77;100506.84;5072234;28;20889;-64
2023/07/01 02:44:37;;;;;;;0.00;0.00;;;;;;;24.58;45.03;100504.44;5071515;28;20036;-63
2023/07/01 02:47:03;;;;;;;0.05;0.05;;;;;;;24.99;44.93;100509.38;5071308;28;20044;-63
2023/07/01 02:49:28;;;;;;;0.00;0.00;;;;;;;24.77;46.08;100499.41;5071461;28;20075;-63
2023/07/01 02:51:53;;;;;;;0.00;0.00;;;;;;;24.47;47.74;100516.88;5071011;28;20043;-63
2023/07/01 02:54:19;;;;;;;0.00;0.00;;;;;;;23.35;53.07;100494.00;5071977;28;20055;-63
2023/07/01 02:56:44;;;;;;;0.00;0.00;;;;;;;22.94;55.04;100506.41;5071568;28;20040;-64
2023/07/01 02:59:10;;;;;;;0.00;0.00;;;;;;;23.44;53.42;100494.03;5071345;28;20036;-64
2023/07/01 03:01:35;;;;;;;0.00;0.00;;;;;;;23.86;52.37;100501.53;5071340;28;20098;-63
2023/07/01 03:04:01;;;;;;;0.08;0.08;;;;;;;23.45;53.30;100490.97;5075115;28;20063;-66
2023/07/01 03:06:26;;;;;;;0.00;0.00;;;;;;;23.39;53.43;100502.38;5071592;28;20464;-63
2023/07/01 03:08:52;;;;;;;0.10;0.10;;;;;;;23.61;52.89;100499.53;5070921;28;20294;-64
2023/07/01 03:11:17;;;;;;;0.10;0.10;;;;;;;24.30;50.83;100494.94;5053893;28;20085;-64
2023/07/01 03:13:42;;;;;;;0.00;0.00;;;;;;;24.59;50.02;100489.56;5070982;28;20500;-63
2023/07/01 03:16:09;;;;;;;0.08;0.08;;;;;;;23.74;52.60;100493.13;5070604;28;20098;-63
2023/07/01 03:18:34;;;;;;;0.10;0.10;;;;;;;23.54;53.19;100486.31;5071629;28;20037;-64
2023/07/01 03:21:00;;;;;;;0.00;0.00;;;;;;;23.60;53.02;100480.66;5070555;28;20040;-65
2023/07/01 03:23:29;;;;;;;0.05;0.05;;;;;;;22.99;55.05;100482.41;5070359;28;20669;-63
2023/07/01 03:25:55;;;;;;;0.00;0.00;;;;;;;23.29;54.50;100472.50;5070480;28;20037;-63
2023/07/01 03:28:21;;;;;;;0.10;0.10;;;;;;;22.95;57.25;100481.41;5070805;28;20048;-64
2023/07/01 03:30:46;;;;;;;0.10;0.10;;;;;;;23.45;56.14;100471.75;5052505;28;20396;-65
2023/07/01 03:33:12;;;;;;;0.10;0.10;;;;;;;23.86;54.34;100457.59;5070625;28;20024;-62
2023/07/01 03:35:38;;;;;;;0.10;0.10;;;;;;;24.58;52.35;100463.22;5070757;28;20089;-62
2023/07/01 03:38:04;;;;;;;0.00;0.00;;;;;;;24.39;52.74;100455.34;5070506;28;20085;-63
2023/07/01 03:40:29;;;;;;;0.10;0.10;;;;;;;25.02;50.20;100443.53;5070647;28;20542;-64
2023/07/01 03:42:54;;;;;;;0.00;0.00;;;;;;;24.99;49.56;100440.63;5070367;28;20016;-63
2023/07/01 03:45:20;;;;;;;0.00;0.00;;;;;;;24.42;51.49;100448.38;5071130;28;20074;-65
2023/07/01 03:47:45;;;;;;;0.08;0.08;;;;;;;24.17;51.88;100435.50;5070864;28;20532;-65
2023/07/01 03:50:12;;;;;;;0.00;0.00;;;;;;;24.37;52.06;100443.09;5070680;28;20040;-65
2023/07/01 03:52:39;;;;;;;0.10;0.10;;;;;;;24.30;51.79;100429.84;5070670;28;20064;-63
2023/07/01 03:55:06;;;;;;;0.00;0.00;;;;;;;24.77;50.76;100424.38;5070386;28;20024;-64
2023/07/01 03:57:32;;;;;;;0.03;0.03;;;;;;;24.33;51.61;100431.91;5070384;28;20032;-66
2023/07/01 03:59:57;;;;;;;0.10;0.10;;;;;;;24.58;50.85;100424.75;5070498;28;20404;-64
2023/07/01 04:02:23;;;;;;;0.10;0.10;;;;;;;23.80;53.11;100427.91;5057350;28;20025;-63
2023/07/01 04:04:49;;;;;;;0.10;0.10;;;;;;;24.40;51.54;100421.25;5072260;28;20037;-63
2023/07/01 04:07:15;;;;;;;0.10;0.10;;;;;;;24.93;49.74;100415.28;5041513;28;20631;-64
2023/07/01 04:09:41;;;;;;;0.10;0.10;;;;;;;24.50;50.97;100411.84;5066388;28;20045;-63
2023/07/01 04:12:07;;;;;;;0.10;0.10;;;;;;;23.79;52.77;100413.38;5072213;28;20067;-62
2023/07/01 04:14:32;;;;;;;0.00;0.00;;;;;;;23.88;52.94;100416.13;5069294;28;20029;-65
2023/07/01 04:16:58;;;;;;;0.10;0.10;;;;;;;23.94;53.28;100406.59;5069693;28;20035;-62
2023/07/01 04:19:23;;;;;;;0.05;0.05;;;;;;;23.71;53.89;100405.13;5069693;28;20438;-61
2023/07/01 04:21:49;;;;;;;0.00;0.00;;;;;;;25.13;49.71;100406.28;5069810;28;20024;-62
2023/07/01 04:24:14;;;;;;;0.00;0.00;;;;;;;24.61;51.00;100398.56;5069650;28;20097;-62
2023/07/01 04:26:41;;;;;;;0.10;0.10;;;;;;;23.76;53.64;100403.06;5069329;28;20072;-64
2023/07/01 04:29:07;;;;;;;0.00;0.00;;;;;;;24.83;51.13;100399.16;5069300;28;20369;-64
2023/07/01 04:31:33;;;;;;;0.00;0.00;;;;;;;24.40;52.27;100392.97;5069621;28;20025;-63
2023/07/01 04:33:58;;;;;;;0.10;0.10;;;;;;;24.00;54.17;100395.13;5069519;28;20028;-63
2023/07/01 04:36:24;;;;;;;0.00;0.00;;;;;;;24.20;53.85;100393.66;5070076;28;20051;-63
2023/07/01 04:38:49;;;;;;;0.10;0.10;;;;;;;24.23;53.50;100393.03;5051141;28;20036;-64
2023/07/01 04:41:14;;;;;;;0.10;0.10;;;;;;;23.79;55.16;100387.88;5069033;28;20036;-63
2023/07/01 04:43:40;;;;;;;0.03;0.03;;;;;;;22.89;57.59;100392.25;5069604;28;20028;-65
2023/07/01 04:46:06;;;;;;;0.10;0.10;;;;;;;23.70;55.11;100395.31;5051051;28;20048;-62
2023/07/01 04:48:31;;;;;;;0.10;0.10;;;;;;;24.29;53.24;100380.72;5069939;28;20064;-63
2023/07/01 04:50:56;;;;;;;0.10;0.10;;;;;;;24.04;53.90;100387.88;5051199;28;20406;-66
2023/07/01 04:53:22;;;;;;;0.00;0.00;;;;;;;24.93;51.88;100381.47;5069262;28;20075;-65
2023/07/01 04:55:48;;;;;;;0.00;0.00;;;;;;;23.99;54.75;100382.53;5069136;28;20047;-64
2023/07/01 04:58:14;;;;;;;0.00;0.00;;;;;;;24.15;54.54;100380.94;5069447;28;20461;-65
2023/07/01 05:00:39;;;;;;;0.10;0.10;;;;;;;24.28;54.32;100379.09;5051075;28;20396;-64
2023/07/01 05:03:05;;;;;;;0.10;0.10;;;;;;;23.61;56.25;100373.34;5072493;28;20028;-64
2023/07/01 05:05:30;;;;;;;0.00;0.00;;;;;;;24.53;53.63;100378.22;5069064;28;20044;-63
2023/07/01 05:07:56;;;;;;;0.03;0.03;;;;;;;24.69;53.41;100372.97;5069333;28;20511;-65
2023/07/01 05:10:22;;;;;;;0.10;0.10;;;;;;;24.60;53.60;100372.22;5073764;28;20174;-66
2023/07/01 05:12:49;;;;;;;0.03;0.03;;;;;;;24.26;55.30;100373.94;5074054;28;20226;-63
2023/07/01 05:15:15;;;;;;;0.00;0.00;;;;;;;24.16;55.67;100377.03;5070905;28;20336;-63
2023/07/01 05:17:40;;;;;;;0.00;0.00;;;;;;;24.16;55.34;100377.03;5073170;28;20043;-65
2023/07/01 05:20:06;;;;;;;0.00;0.00;;;;;;;23.55;57.30;100371.91;5073123;28;20122;-63
2023/07/01 05:22:31;;;;;;;0.00;0.00;;;;;;;24.12;56.72;100376.06;5073404;28;20040;-64
2023/07/01 05:24:57;;;;;;;0.05;0.05;;;;;;;25.46;51.72;100376.13;5072576;28;20052;-63
2023/07/01 05:27:22;;;;;;;0.00;0.00;;;;;;;23.38;59.15;100380.13;5073315;28;20016;-64
2023/07/01 05:29:47;;;;;;;0.08;0.08;;;;;;;23.05;59.85;100378.91;5072520;28;20082;-63
2023/07/01 05:32:13;;;;;;;0.00;0.00;;;;;;;24.25;56.85;100364.06;5073081;28;20036;-65
2023/07/01 05:34:38;;;;;;;0.00;0.00;;;;;;;24.53;55.63;100366.44;5072998;28;20025;-64
2023/07/01 05:37:04;;;;;;;0.00;0.00;;;;;;;24.12;57.18;100369.78;5072840;28;20025;-65
2023/07/01 05:39:30;;;;;;;0.00;0.00;;;;;;;24.21;56.50;100371.38;5072932;28;20021;-65
2023/07/01 05:41:55;;;;;;;0.00;0.00;;;;;;;24.12;57.02;100378.00;5072487;28;20035;-63
2023/07/01 05:44:21;;;;;;;0.00;0.00;;;;;;;23.55;59.11;100364.47;5053946;28;20280;-65
2023/07/01 05:46:46;;;;;;;0.00;0.00;;;;;;;23.64;59.20;100367.22;5072801;28;20037;-63
2023/07/01 05:49:12;;;;;;;0.00;0.00;;;;;;;23.78;58.23;100370.63;5072178;28;20047;-63
2023/07/01 05:51:38;;;;;;;0.00;0.00;;;;;;;23.71;59.15;100366.72;5073206;28;20036;-66
2023/07/01 05:54:03;;;;;;;0.10;0.10;;;;;;;24.23;57.71;100368.31;5072066;28;20044;-64
2023/07/01 05:56:30;;;;;;;0.00;0.00;;;;;;;23.98;58.60;100367.19;5081487;28;20032;-63
2023/07/01 05:58:55;;;;;;;0.00;0.00;;;;;;;24.90;56.55;100357.41;5058231;28;20067;-64
2023/07/01 06:01:20;;;;;;;0.10;0.10;;;;;;;23.80;59.86;100364.78;5071822;28;20033;-63
2023/07/01 06:03:46;;;;;;;0.10;0.10;;;;;;;23.79;59.96;100357.69;5073943;28;20024;-64
2023/07/01 06:06:11;;;;;;;0.00;0.00;;;;;;;23.45;61.14;100378.50;5054186;28;20599;-63
2023/07/01 06:08:36;;;;;;;0.00;0.00;;;;;;;22.99;63.33;100370.03;5072155;28;20043;-62
2023/07/01 06:11:02;;;;;;;0.10;0.10;;;;;;;23.02;64.19;100363.91;5063156;28;20081;-63
2023/07/01 06:13:28;;;;;;;0.10;0.10;;;;;;;23.12;63.97;100362.78;5071932;28;20052;-64
2023/07/01 06:15:53;;;;;;;0.00;0.00;;;;;;;23.70;61.41;100363.19;5072201;28;20021;-64
2023/07/01 06:18:18;;;;;;;0.10;0.10;;;;;;;23.50;62.23;100361.91;5072049;28;20024;-64
2023/07/01 06:20:44;;;;;;;0.10;0.10;;;;;;;24.09;60.80;100360.25;5071757;28;20439;-64
2023/07/01 06:23:09;;;;;;;0.00;0.00;;;;;;;24.53;58.53;100353.47;5071539;28;20090;-65
2023/07/01 06:25:34;;;;;;;0.00;0.00;;;;;;;24.21;59.56;100354.91;5051021;28;20041;-66
2023/07/01 06:28:00;;;;;;;0.10;0.10;;;;;;;23.53;61.92;100364.00;5052058;28;20418;-64
2023/07/01 06:30:25;;;;;;;0.00;0.00;;;;;;;24.13;60.02;100346.69;5052065;28;20024;-64
2023/07/01 06:32:52;;;;;;;0.10;0.10;;;;;;;24.35;58.89;100354.72;5051370;28;20037;-65
2023/07/01 06:35:17;;;;;;;0.00;0.00;;;;;;;24.13;59.62;100350.25;5051435;28;20084;-64
2023/07/01 06:37:43;;;;;;;0.00;0.00;;;;;;;23.91;60.78;100352.34;5051499;28;20033;-66
2023/07/01 06:40:08;;;;;;;0.00;0.00;;;;;;;23.70;61.59;100349.47;5051121;28;20109;-64
2023/07/01 06:42:35;;;;;;;0.00;0.00;;;;;;;24.50;58.87;100340.41;5052110;28;20409;-63
2023/07/01 06:45:01;;;;;;;0.00;0.00;;;;;;;24.40;59.30;100349.84;5051343;28;20060;-64
2023/07/01 06:47:26;;;;;;;0.00;0.00;;;;;;;24.17;59.91;100353.94;5051494;28;20036;-65
2023/07/01 06:49:51;;;;;;;0.00;0.00;;;;;;;23.81;61.36;100355.41;5051208;28;20051;-65
2023/07/01 06:52:17;;;;;;;0.08;0.08;;;;;;;24.17;60.72;100351.22;5051228;28;20044;-63
2023/07/01 06:54:42;;;;;;;0.08;0.08;;;;;;;24.23;60.86;100341.66;5051745;28;20028;-63
2023/07/01 06:57:07;;;;;;;0.00;0.00;;;;;;;24.38;60.50;100338.38;5051297;28;20044;-64
2023/07/01 06:59:33;;;;;;;0.00;0.00;;;;;;;24.04;62.85;100352.19;5051243;28;20439;-66
2023/07/01 07:01:58;;;;;;;0.00;0.00;;;;;;;24.26;62.83;100345.66;5051064;28;20033;-68
2023/07/01 07:04:23;;;;;;;0.10;0.10;;;;;;;24.29;62.02;100343.06;5050731;28;20037;-65
2023/07/01 07:06:49;;;;;;;0.10;0.10;;;;;;;23.49;65.32;100359.47;5050928;28;20388;-64
2023/07/01 07:09:15;;;;;;;0.10;0.10;;;;;;;23.87;64.57;100343.97;5051240;28;20017;-65
2023/07/01 07:11:41;;;;;;;0.05;0.05;;;;;;;23.91;65.31;100346.84;5050875;28;20128;-64
2023/07/01 07:14:06;;;;;;;0.05;0.05;;;;;;;24.06;64.25;100338.13;5051128;28;20116;-66
2023/07/01 07:16:34;;;;;;;0.00;0.00;;;;;;;23.48;65.85;100342.22;5051119;28;20028;-65
2023/07/01 07:19:00;;;;;;;0.00;0.00;;;;;;;24.15;64.55;100333.44;5050466;28;20106;-65
2023/07/01 07:21:25;;;;;;;0.10;0.10;;;;;;;23.48;67.00;100346.91;5051367;28;20017;-65
2023/07/01 07:23:51;;;;;;;0.10;0.10;;;;;;;24.39;64.43;100341.94;5056351;28;20496;-63
2023/07/01 07:26:16;;;;;;;0.00;0.00;;;;;;;24.52;62.92;100340.09;5070315;28;20066;-64
2023/07/01 07:28:41;;;;;;;0.00;0.00;;;;;;;24.37;63.63;100335.97;5070484;28;20456;-64
2023/07/01 07:31:07;;;;;;;0.10;0.10;;;;;;;23.80;65.90;100340.09;5070776;28;20029;-65
2023/07/01 07:33:32;;;;;;;0.03;0.03;;;;;;;25.01;61.61;100342.94;5070756;28;20029;-64
2023/07/01 07:35:58;;;;;;;0.05;0.05;;;;;;;24.64;62.77;100338.25;5070612;28;20404;-66
2023/07/01 07:38:23;;;;;;;0.00;0.00;;;;;;;24.37;63.93;100341.44;5069595;28;20033;-63
2023/07/01 07:40:49;;;;;;;0.00;0.00;;;;;;;24.68;62.35;100343.91;5070279;28;20052;-64
2023/07/01 07:43:14;;;;;;;0.00;0.00;;;;;;;24.16;63.46;100352.31;5070423;28;20052;-65
2023/07/01 07:45:40;;;;;;;0.00;0.00;;;;;;;23.86;65.65;100344.28;5071094;28;20024;-63
2023/07/01 07:48:06;;;;;;;0.00;0.00;;;;;;;24.09;64.61;100341.03;5072078;28;20081;-68
2023/07/01 07:50:33;;;;;;;0.03;0.03;;;;;;;24.57;63.57;100335.19;5077324;28;20128;-64
2023/07/01 07:52:58;;;;;;;0.00;0.00;;;;;;;25.31;61.03;100334.63;5070370;28;20446;-64
2023/07/01 07:55:26;;;;;;;0.00;0.00;;;;;;;24.73;62.40;100347.28;5069727;28;20085;-65
2023/07/01 07:57:51;;;;;;;0.00;0.00;;;;;;;23.64;66.51;100344.47;5070477;28;20097;-64
2023/07/01 08:00:17;;;;;;;0.03;0.03;;;;;;;23.91;66.15;100338.63;5069658;28;20485;-64
2023/07/01 08:02:46;;;;;;;0.00;0.00;;;;;;;24.37;64.49;100338.69;5063936;28;20098;-65
2023/07/01 08:05:16;;;;;;;0.00;0.00;;;;;;;23.94;65.44;100327.00;5081149;28;20029;-65
2023/07/01 08:07:42;;;;;;;0.00;0.00;;;;;;;23.73;65.89;100332.34;5070058;28;20523;-65
2023/07/01 08:10:07;;;;;;;0.10;0.10;;;;;;;24.77;62.72;100318.00;5071960;28;20032;-63
2023/07/01 08:12:33;;;;;;;0.00;0.00;;;;;;;24.77;62.96;100322.69;5070267;28;20086;-66
2023/07/01 08:14:58;;;;;;;0.00;0.00;;;;;;;24.14;64.37;100326.31;5069555;28;20040;-64
2023/07/01 08:17:24;;;;;;;0.00;0.00;;;;;;;24.15;65.26;100325.19;5069488;28;20035;-63
2023/07/01 08:19:49;;;;;;;0.00;0.00;;;;;;;25.01;62.08;100320.94;5068592;28;20032;-64
2023/07/01 08:22:14;;;;;;;0.00;0.00;;;;;;;24.13;64.41;100332.97;5065582;28;20033;-64
2023/07/01 08:24:40;;;;;;;0.00;0.00;;;;;;;23.99;64.75;100332.31;5051323;28;20389;-66
2023/07/01 08:27:06;;;;;;;0.00;0.00;;;;;;;23.83;65.95;100326.53;5064698;28;20091;-63
2023/07/01 08:29:32;;;;;;;0.00;0.00;;;;;;;24.38;64.70;100329.31;5068483;28;20136;-62
2023/07/01 08:31:59;;;;;;;0.00;0.00;;;;;;;24.29;65.49;100326.59;5063747;28;20040;-65
2023/07/01 08:34:24;;;;;;;0.08;0.08;;;;;;;24.90;62.83;100322.44;5062293;28;20075;-64
2023/07/01 08:36:50;;;;;;;0.10;0.10;;;;;;;24.63;63.74;100324.84;5042576;28;20037;-64
2023/07/01 08:39:16;;;;;;;0.00;0.00;;;;;;;23.63;67.81;100337.34;5063884;28;20046;-65
2023/07/01 08:41:49;;;;;;;0.00;0.00;;;;;;;24.19;66.27;100323.41;5062934;28;20032;-64
2023/07/01 08:44:16;;;;;;;0.00;0.00;;;;;;;24.66;64.59;100319.50;5062448;28;20395;-64
2023/07/01 08:46:42;;;;;;;0.00;0.00;;;;;;;24.95;63.05;100318.69;5044925;28;20382;-63
2023/07/01 08:49:09;;;;;;;0.00;0.00;;;;;;;24.97;62.56;100317.25;5062473;28;20048;-65
2023/07/01 08:51:39;;;;;;;0.00;0.00;;;;;;;25.14;62.84;100313.56;5062767;28;20074;-65
2023/07/01 08:54:05;;;;;;;;;;;;;;;24.73;64.09;100321.75;5061062;28;20021;-65
2023/07/01 08:56:31;;;;;;;0.00;0.00;;;;;;;25.00;63.17;100313.03;5062017;28;19927;-63
2023/07/01 08:58:56;;;;;;;0.10;0.10;;;;;;;24.34;64.63;100312.69;5063635;28;20443;-64
2023/07/01 09:01:22;;;;;;;0.00;0.00;;;;;;;24.90;63.53;100305.94;5062972;28;20051;-65
2023/07/01 09:03:49;;;;;;;0.00;0.00;;;;;;;24.14;65.56;100318.09;5047479;28;20040;-65
2023/07/01 09:06:14;;;;;;;0.00;0.00;;;;;;;25.10;61.98;100318.13;5061754;28;20091;-64
2023/07/01 09:08:40;;;;;;;0.00;0.00;;;;;;;25.56;60.67;100312.44;5064768;28;20029;-65
2023/07/01 09:11:16;;;;;;;0.00;0.00;;;;;;;25.21;62.40;100311.91;5065051;28;20053;-64
2023/07/01 09:13:42;;;;;;;0.00;0.00;;;;;;;25.22;61.82;100299.75;5063573;28;20024;-65
2023/07/01 09:16:08;;;;;;;0.00;0.00;;;;;;;25.01;62.33;100309.94;5066637;28;20093;-65
2023/07/01 09:18:34;;;;;;;0.00;0.00;;;;;;;25.45;61.36;100303.00;5068072;28;20032;-63
2023/07/01 09:21:00;;;;;;;0.00;0.00;;;;;;;25.50;61.00;100311.03;5067349;28;20053;-66
2023/07/01 09:23:28;;;;;;;0.00;0.00;;;;;;;26.05;59.54;100307.91;5064928;28;20039;-64
2023/07/01 09:26:11;;;;;;;0.00;0.00;;;;;;;26.23;59.19;100311.28;5067412;28;20037;-65
2023/07/01 09:28:40;;;;;;;0.00;0.00;;;;;;;24.69;64.25;100305.06;5068570;28;20032;-64
2023/07/01 09:31:09;;;;;;;0.00;0.00;;;;;;;24.93;63.28;100310.78;5068274;28;20037;-63
2023/07/01 09:33:35;;;;;;;0.00;0.00;;;;;;;25.73;60.76;100305.97;5069258;28;20116;-63
2023/07/01 09:36:01;;;;;;;0.00;0.00;;;;;;;25.62;62.69;100310.28;5069107;28;20040;-66
2023/07/01 09:38:27;;;;;;;0.00;0.00;;;;;;;26.27;60.13;100303.94;5069223;28;20340;-64
2023/07/01 09:40:53;;;;;;;0.00;0.00;;;;;;;26.01;60.97;100307.78;5073164;28;20387;-66
2023/07/01 09:43:19;;;;;;;0.00;0.00;;;;;;;26.14;60.95;100296.81;5089224;28;20173;-65
2023/07/01 09:45:57;;;;;;;0.00;0.00;;;;;;;25.57;62.09;100294.00;5089655;28;20036;-65
2023/07/01 09:48:23;;;;;;;0.00;0.00;;;;;;;26.42;59.78;100293.06;5083602;28;20067;-65
2023/07/01 09:50:49;;;;;;;0.00;0.00;;;;;;;26.00;60.73;100297.88;5068903;28;20044;-65
2023/07/01 09:53:19;;;;;;;0.00;0.00;;;;;;;26.32;60.16;100290.75;5069113;28;20037;-66
2023/07/01 09:55:46;;;;;;;0.00;0.00;;;;;;;26.59;57.70;100303.06;5065498;28;20047;-65
2023/07/01 09:58:11;;;;;;;0.00;0.00;;;;;;;26.06;59.37;100302.06;5064010;28;20039;-66
2023/07/01 10:00:38;;;;;;;0.00;0.00;;;;;;;26.06;59.62;100293.81;5069087;28;20476;-63
2023/07/01 10:03:03;;;;;;;0.00;0.00;;;;;;;25.14;62.07;100291.56;5069497;28;20818;-64
2023/07/01 10:05:29;;;;;;;0.00;0.00;;;;;;;24.75;64.13;100283.72;5068903;28;20048;-64
2023/07/01 10:07:55;;;;;;;0.00;0.00;;;;;;;25.64;61.37;100288.72;5071307;28;20128;-66
2023/07/01 10:10:21;;;;;;;0.00;0.00;;;;;;;25.83;60.77;100278.81;5068020;28;20115;-63
2023/07/01 10:12:48;;;;;;;0.00;0.00;;;;;;;26.11;59.90;100279.03;5070911;28;20039;-64
2023/07/01 10:15:20;;;;;;;0.00;0.00;;;;;;;26.89;58.13;100291.44;5050499;28;20097;-65
2023/07/01 10:17:48;;;;;;;0.00;0.00;;;;;;;26.89;58.03;100280.41;5071951;28;20029;-66
2023/07/01 10:20:46;;;;;;;0.00;0.00;;;;;;;25.99;60.15;100301.81;5072575;28;20123;-64
2023/07/01 10:23:11;;;;;;;0.00;0.00;;;;;;;25.61;61.72;100272.91;4983952;28;20039;-64
2023/07/01 10:25:38;;;;;;;0.00;0.00;;;;;;;26.82;57.99;100268.38;4973428;28;20050;-63
2023/07/01 10:28:04;;;;;;;0.00;0.00;;;;;;;26.72;58.67;100277.13;4979502;28;20148;-65
2023/07/01 10:30:42;;;;;;;0.00;0.00;;;;;;;26.65;59.48;100269.38;4958857;28;20600;-64
2023/07/01 10:33:39;;;;;;;0.00;0.00;;;;;;;26.63;59.47;100273.66;4961120;28;20189;-65
2023/07/01 10:36:13;;;;;;;0.00;0.00;;;;;;;25.97;60.78;100282.06;4962109;28;20051;-65
2023/07/01 10:38:38;;;;;;;0.00;0.00;;;;;;;26.84;58.41;100269.63;4945788;28;20062;-64
2023/07/01 10:41:05;;;;;;;0.00;0.00;;;;;;;26.55;59.29;100272.63;4958835;28;20122;-65
2023/07/01 10:43:36;;;;;;;0.00;0.00;;;;;;;26.10;60.59;100274.66;4948025;28;20105;-64
2023/07/01 10:46:23;;;;;;;0.00;0.00;;;;;;;27.46;57.52;100276.63;4966033;28;20026;-66
2023/07/01 10:49:03;;;;;;;0.00;0.00;;;;;;;27.49;56.45;100278.69;4961664;28;20089;-66
2023/07/01 10:51:31;;;;;;;0.00;0.00;;;;;;;26.29;60.06;100271.34;4962259;28;20047;-65
2023/07/01 10:54:00;;;;;;;0.00;0.00;;;;;;;26.79;58.60;100278.13;4956184;28;20038;-65
2023/07/01 10:57:07;;;;;;;0.00;0.00;;;;;;;27.07;57.97;100266.34;4959372;28;20117;-65
2023/07/01 10:59:32;;;;;;;0.00;0.00;;;;;;;26.43;59.44;100272.63;5045813;28;20029;-66
2023/07/01 11:02:01;;;;;;;0.00;0.00;;;;;;;27.29;57.16;100274.13;5070375;28;20043;-65
2023/07/01 11:04:51;;;;;;;0.00;0.00;;;;;;;26.89;59.05;100263.06;5052267;28;20469;-63
2023/07/01 11:07:26;;;;;;;0.00;0.00;;;;;;;26.42;60.74;100272.94;5066233;28;20040;-63
2023/07/01 11:09:53;;;;;;;0.00;0.00;;;;;;;27.05;59.44;100260.38;5069927;28;20051;-65
2023/07/01 11:12:19;;;;;;;0.00;0.00;;;;;;;27.68;57.56;100267.75;5069096;28;20132;-66
2023/07/01 11:14:45;;;;;;;0.00;0.00;;;;;;;26.75;61.80;100266.19;5047412;28;20037;-63
2023/07/01 11:17:21;;;;;;;0.00;0.00;;;;;;;25.78;66.66;100273.53;5066277;28;20109;-66
2023/07/01 11:19:56;;;;;;;0.00;0.00;;;;;;;25.41;67.77;100265.47;5065815;28;20460;-62
2023/07/01 11:22:22;;;;;;;0.00;0.00;;;;;;;25.74;67.26;100269.03;5070474;28;20135;-65
2023/07/01 11:24:48;;;;;;;0.00;0.00;;;;;;;25.20;68.83;100277.28;5069161;28;20124;-63
2023/07/01 11:27:13;;;;;;;0.00;0.00;;;;;;;25.92;67.13;100274.03;5070021;28;20025;-66